createdAt,value
2022-11-25T00:01:36.150Z,99137.56
2022-11-25T00:04:06.122Z,99137.13
2022-11-25T00:06:35.425Z,99136.34
2022-11-25T00:09:06.965Z,99136.16
2022-11-25T00:11:36.904Z,99135.75
2022-11-25T00:14:05.747Z,99132.22
2022-11-25T00:16:34.160Z,99146.56
2022-11-25T00:19:02.265Z,99141.22
2022-11-25T00:21:35.012Z,99140.44
2022-11-25T00:24:04.927Z,99144.72
2022-11-25T00:26:34.496Z,99138.88
2022-11-25T00:29:04.646Z,99137.38
2022-11-25T00:31:35.154Z,99142.72
2022-11-25T00:34:03.956Z,99144.28
2022-11-25T00:36:35.501Z,99151.53
2022-11-25T00:39:05.761Z,99144.28
2022-11-25T00:41:51.423Z,99151.28
2022-11-25T00:44:40.764Z,99145.09
2022-11-25T00:47:13.150Z,99139.56
2022-11-25T00:49:42.835Z,99145.41
2022-11-25T00:52:15.291Z,99140.44
2022-11-25T00:54:44.794Z,99138.97
2022-11-25T00:57:12.934Z,99153.59
2022-11-25T00:59:41.115Z,99142.78
2022-11-25T01:02:10.065Z,99146.72
2022-11-25T01:04:38.378Z,99151.34
2022-11-25T01:07:06.676Z,99148.31
2022-11-25T01:09:36.324Z,99144.53
2022-11-25T01:12:05.420Z,99144.47
2022-11-25T01:14:34.410Z,99148.38
2022-11-25T01:17:02.935Z,99154.56
2022-11-25T01:19:31.142Z,99156.56
2022-11-25T01:21:59.171Z,99157.63
2022-11-25T01:24:27.608Z,99158.41
2022-11-25T01:26:57.161Z,99156.84
2022-11-25T01:29:25.438Z,99154.13
2022-11-25T01:31:56.405Z,99150.19
2022-11-25T01:34:26.964Z,99153.72
2022-11-25T01:36:55.013Z,99150.19
2022-11-25T01:39:30.468Z,99147.41
2022-11-25T01:42:01.947Z,99157.53
2022-11-25T01:44:31.823Z,99153.59
2022-11-25T01:47:07.448Z,99152.81
2022-11-25T01:49:42.019Z,99159.38
2022-11-25T01:52:15.454Z,99156.22
2022-11-25T01:54:50.676Z,99163.66
2022-11-25T01:57:26.043Z,99165.91
2022-11-25T01:59:57.558Z,99169.75
2022-11-25T02:02:25.999Z,99170.44
2022-11-25T02:04:54.208Z,99173.59
2022-11-25T02:07:32.195Z,99174.38
2022-11-25T02:10:03.034Z,99174.38
2022-11-25T02:12:33.472Z,99174.31
2022-11-25T02:15:01.477Z,99163.81
2022-11-25T02:17:30.031Z,99175.09
2022-11-25T02:20:03.857Z,99166.06
2022-11-25T02:22:46.605Z,99175.41
2022-11-25T02:25:19.127Z,99178.47
2022-11-25T02:27:52.417Z,99178.56
2022-11-25T02:30:20.635Z,99174.19
2022-11-25T02:32:49.805Z,99177.41
2022-11-25T02:35:33.218Z,99181.28
2022-11-25T02:38:08.177Z,99169.69
2022-11-25T02:40:42.078Z,99160.78
2022-11-25T02:43:10.174Z,99161.91
2022-11-25T02:45:50.527Z,99164.16
2022-11-25T02:48:19.437Z,99170.78
2022-11-25T02:50:48.202Z,99166.84
2022-11-25T02:53:16.537Z,99168.44
2022-11-25T02:55:46.413Z,99173.06
2022-11-25T02:58:14.946Z,99170.44
2022-11-25T03:00:43.722Z,99172.00
2022-11-25T03:03:12.707Z,99174.38
2022-11-25T03:05:40.773Z,99175.16
2022-11-25T03:08:09.340Z,99177.41
2022-11-25T03:10:38.468Z,99170.53
2022-11-25T03:13:09.310Z,99167.50
2022-11-25T03:15:37.529Z,99166.78
2022-11-25T03:18:06.439Z,99173.75
2022-11-25T03:20:35.290Z,99176.81
2022-11-25T03:23:04.337Z,99185.81
2022-11-25T03:25:32.530Z,99184.13
2022-11-25T03:28:00.493Z,99182.25
2022-11-25T03:30:30.503Z,99171.69
2022-11-25T03:32:58.785Z,99172.91
2022-11-25T03:35:26.865Z,99182.50
2022-11-25T03:37:55.170Z,99170.53
2022-11-25T03:40:23.360Z,99164.00
2022-11-25T03:42:51.609Z,99166.19
2022-11-25T03:45:19.848Z,99170.19
2022-11-25T03:47:49.367Z,99176.38
2022-11-25T03:50:17.534Z,99186.84
2022-11-25T03:52:45.693Z,99190.25
2022-11-25T03:55:14.298Z,99196.47
2022-11-25T03:57:42.834Z,99199.16
2022-11-25T04:00:12.300Z,99197.56
2022-11-25T04:02:40.356Z,99192.94
2022-11-25T04:05:10.591Z,99185.72
2022-11-25T04:07:38.738Z,99193.84
2022-11-25T04:10:08.217Z,99201.94
2022-11-25T04:12:48.413Z,99200.81
2022-11-25T04:15:18.694Z,99200.19
2022-11-25T04:17:47.376Z,99199.56
2022-11-25T04:20:17.375Z,99207.69
2022-11-25T04:22:45.638Z,99214.69
2022-11-25T04:25:14.192Z,99206.28
2022-11-25T04:27:42.184Z,99213.97
2022-11-25T04:30:11.028Z,99220.69
2022-11-25T04:32:40.054Z,99226.81
2022-11-25T04:35:08.661Z,99222.97
2022-11-25T04:37:38.069Z,99223.22
2022-11-25T04:40:07.950Z,99224.34
2022-11-25T04:42:36.976Z,99224.69
2022-11-25T04:45:22.859Z,99229.44
2022-11-25T04:47:52.824Z,99231.00
2022-11-25T04:50:23.338Z,99245.66
2022-11-25T04:52:52.759Z,99238.66
2022-11-25T04:55:20.892Z,99243.19
2022-11-25T04:57:49.013Z,99246.69
2022-11-25T05:00:16.903Z,99243.38
2022-11-25T05:02:45.135Z,99245.00
2022-11-25T05:05:19.465Z,99246.84
2022-11-25T05:07:50.746Z,99241.25
2022-11-25T05:10:21.005Z,99258.25
2022-11-25T05:12:49.139Z,99252.97
2022-11-25T05:15:17.366Z,99259.72
2022-11-25T05:17:45.570Z,99264.47
2022-11-25T05:20:14.098Z,99258.38
2022-11-25T05:22:42.038Z,99266.81
2022-11-25T05:25:10.964Z,99274.59
2022-11-25T05:27:40.564Z,99273.09
2022-11-25T05:30:10.210Z,99282.44
2022-11-25T05:32:38.301Z,99282.88
2022-11-25T05:35:07.218Z,99282.44
2022-11-25T05:37:35.340Z,99287.59
2022-11-25T05:40:04.552Z,99297.69
2022-11-25T05:42:32.779Z,99308.19
2022-11-25T05:45:02.349Z,99309.31
2022-11-25T05:47:31.115Z,99312.38
2022-11-25T05:49:59.167Z,99325.56
2022-11-25T05:52:27.170Z,99320.94
2022-11-25T05:54:57.486Z,99328.34
2022-11-25T05:57:25.747Z,99331.50
2022-11-25T05:59:53.745Z,99332.28
2022-11-25T06:02:24.142Z,99336.78
2022-11-25T06:04:52.204Z,99346.13
2022-11-25T06:07:20.273Z,99344.47
2022-11-25T06:09:48.466Z,99356.41
2022-11-25T06:12:16.598Z,99356.09
2022-11-25T06:14:44.627Z,99356.53
2022-11-25T06:17:12.660Z,99354.69
2022-11-25T06:19:41.959Z,99369.00
2022-11-25T06:22:10.005Z,99355.94
2022-11-25T06:24:39.125Z,99381.94
2022-11-25T06:27:08.173Z,99378.44
2022-11-25T06:29:37.207Z,99382.38
2022-11-25T06:32:06.292Z,99390.47
2022-11-25T06:34:36.625Z,99399.06
2022-11-25T06:37:06.332Z,99406.03
2022-11-25T06:39:34.384Z,99401.50
2022-11-25T06:42:02.480Z,99407.56
2022-11-25T06:44:30.531Z,99415.34
2022-11-25T06:46:58.883Z,99421.28
2022-11-25T06:49:27.055Z,99429.97
2022-11-25T06:51:55.281Z,99418.03
2022-11-25T06:54:24.830Z,99416.13
2022-11-25T06:56:53.893Z,99422.66
2022-11-25T06:59:22.808Z,99428.94
2022-11-25T07:01:51.048Z,99433.66
2022-11-25T07:04:19.175Z,99436.13
2022-11-25T07:06:47.425Z,99442.69
2022-11-25T07:09:15.489Z,99452.38
2022-11-25T07:11:44.914Z,99443.81
2022-11-25T07:14:15.481Z,99441.09
2022-11-25T07:17:06.169Z,99444.16
2022-11-25T07:19:37.134Z,99457.44
2022-11-25T07:22:05.357Z,99473.81
2022-11-25T07:24:34.167Z,99451.28
2022-11-25T07:27:06.065Z,99460.63
2022-11-25T07:29:54.555Z,99459.16
2022-11-25T07:32:23.741Z,99458.25
2022-11-25T07:34:52.412Z,99471.09
2022-11-25T07:37:21.037Z,99472.78
2022-11-25T07:39:49.115Z,99476.28
2022-11-25T07:42:18.537Z,99484.50
2022-11-25T07:44:46.644Z,99479.97
2022-11-25T07:47:14.753Z,99485.97
2022-11-25T07:49:43.123Z,99484.59
2022-11-25T07:52:11.318Z,99478.50
2022-11-25T07:54:39.383Z,99482.97
2022-11-25T07:57:07.524Z,99490.06
2022-11-25T07:59:41.346Z,99491.28
2022-11-25T08:02:14.166Z,99484.81
2022-11-25T08:04:42.530Z,99502.66
2022-11-25T08:07:12.408Z,99487.97
2022-11-25T08:09:40.489Z,99507.25
2022-11-25T08:12:08.717Z,99500.78
2022-11-25T08:14:38.781Z,99509.59
2022-11-25T08:17:06.800Z,99515.69
2022-11-25T08:19:36.042Z,99505.09
2022-11-25T08:22:04.656Z,99515.94
2022-11-25T08:24:32.797Z,99510.97
2022-11-25T08:27:02.080Z,99515.25
2022-11-25T08:29:30.256Z,99515.44
2022-11-25T08:31:59.757Z,99508.41
2022-11-25T08:34:27.903Z,99515.25
2022-11-25T08:36:56.010Z,99515.28
2022-11-25T08:42:15.978Z,99508.03
2022-11-25T08:44:45.070Z,99507.38
2022-11-25T08:47:14.897Z,99502.91
2022-11-25T08:49:43.573Z,99507.38
2022-11-25T08:52:12.299Z,99509.06
2022-11-25T08:54:40.291Z,99496.63
2022-11-25T08:57:08.329Z,99503.81
2022-11-25T08:59:36.676Z,99511.03
2022-11-25T09:02:05.390Z,99500.78
2022-11-25T09:04:34.985Z,99503.88
2022-11-25T09:07:05.298Z,99505.00
2022-11-25T09:09:33.451Z,99506.03
2022-11-25T09:12:01.736Z,99499.25
2022-11-25T09:14:29.976Z,99504.88
2022-11-25T09:16:58.260Z,99507.47
2022-11-25T09:19:26.378Z,99503.41
2022-11-25T09:21:55.947Z,99505.38
2022-11-25T09:24:23.936Z,99499.13
2022-11-25T09:26:52.283Z,99500.88
2022-11-25T09:29:20.271Z,99514.53
2022-11-25T09:31:53.152Z,99514.53
2022-11-25T09:34:23.132Z,99507.31
2022-11-25T09:36:51.637Z,99511.31
2022-11-25T09:39:21.194Z,99520.47
2022-11-25T09:42:20.639Z,99497.13
2022-11-25T09:45:18.193Z,99516.19
2022-11-25T09:47:57.332Z,99512.91
2022-11-25T09:50:36.117Z,99503.47
2022-11-25T09:53:12.524Z,99502.16
2022-11-25T09:55:46.843Z,99505.56
2022-11-25T09:58:27.081Z,99508.38
2022-11-25T10:00:55.307Z,99495.72
2022-11-25T10:03:35.839Z,99489.94
2022-11-25T10:06:09.580Z,99495.72
2022-11-25T10:08:41.273Z,99484.72
2022-11-25T10:11:23.800Z,99482.50
2022-11-25T10:14:04.682Z,99477.84
2022-11-25T10:16:37.468Z,99477.19
2022-11-25T10:19:16.855Z,99476.31
2022-11-25T10:21:46.408Z,99474.38
2022-11-25T10:24:17.923Z,99471.44
2022-11-25T10:26:52.437Z,99460.31
2022-11-25T10:29:26.304Z,99482.72
2022-11-25T10:32:01.843Z,99460.09
2022-11-25T10:34:37.503Z,99479.34
2022-11-25T10:37:14.056Z,99482.94
2022-11-25T10:39:43.468Z,99488.78
2022-11-25T10:42:19.678Z,99478.69
2022-11-25T10:44:48.364Z,99480.84
2022-11-25T10:47:33.573Z,99484.19
2022-11-25T10:50:09.815Z,99474.03
2022-11-25T10:52:40.867Z,99468.31
2022-11-25T10:55:14.494Z,99476.41
2022-11-25T10:57:44.545Z,99478.78
2022-11-25T11:00:28.264Z,99481.59
2022-11-25T11:02:57.461Z,99474.66
2022-11-25T11:05:29.805Z,99486.66
2022-11-25T11:08:18.218Z,99479.41
2022-11-25T11:10:46.912Z,99479.03
2022-11-25T11:13:26.141Z,99478.72
2022-11-25T11:15:55.311Z,99485.00
2022-11-25T11:18:28.149Z,99475.81
2022-11-25T11:20:58.007Z,99485.53
2022-11-25T11:23:26.961Z,99487.09
2022-11-25T11:26:03.299Z,99478.56
2022-11-25T11:28:41.790Z,99481.28
2022-11-25T11:31:19.453Z,99480.50
2022-11-25T11:33:58.407Z,99485.16
2022-11-25T11:36:45.022Z,99484.91
2022-11-25T11:39:27.075Z,99483.44
2022-11-25T11:42:02.119Z,99484.91
2022-11-25T11:44:41.381Z,99484.03
2022-11-25T11:47:23.902Z,99473.25
2022-11-25T11:50:26.331Z,99487.50
2022-11-25T11:52:59.682Z,99493.06
2022-11-25T11:55:42.667Z,99492.22
2022-11-25T11:58:23.953Z,99489.97
2022-11-25T12:01:05.599Z,99490.50
2022-11-25T12:03:41.096Z,99486.19
2022-11-25T12:06:12.471Z,99498.84
2022-11-25T12:08:47.676Z,99501.22
2022-11-25T12:11:19.953Z,99493.53
2022-11-25T12:13:57.869Z,99506.28
2022-11-25T12:16:35.675Z,99505.81
2022-11-25T12:19:10.460Z,99503.56
2022-11-25T12:21:45.397Z,99510.28
2022-11-25T12:24:22.594Z,99522.41
2022-11-25T12:26:57.293Z,99520.81
2022-11-25T12:29:35.034Z,99510.28
2022-11-25T12:32:21.017Z,99517.59
2022-11-25T12:34:55.810Z,99533.72
2022-11-25T12:37:34.065Z,99530.47
2022-11-25T12:40:08.985Z,99528.00
2022-11-25T12:42:41.221Z,99534.66
2022-11-25T12:45:17.139Z,99527.28
2022-11-25T12:47:46.828Z,99538.16
2022-11-25T12:50:22.175Z,99532.19
2022-11-25T12:53:00.241Z,99531.41
2022-11-25T12:55:29.502Z,99550.31
2022-11-25T12:58:39.241Z,99546.16
2022-11-25T13:01:34.489Z,99554.00
2022-11-25T13:04:33.587Z,99557.09
2022-11-25T13:07:21.316Z,99553.28
2022-11-25T13:10:26.476Z,99540.03
2022-11-25T13:13:18.075Z,99565.56
2022-11-25T13:15:48.931Z,99554.63
2022-11-25T13:18:20.476Z,99562.28
2022-11-25T13:20:54.889Z,99555.41
2022-11-25T13:23:31.647Z,99559.25
2022-11-25T13:26:37.816Z,99573.16
2022-11-25T13:29:42.076Z,99563.81
2022-11-25T13:32:31.329Z,99585.63
2022-11-25T13:35:40.803Z,99582.38
2022-11-25T13:38:38.901Z,99574.44
2022-11-25T13:41:23.893Z,99575.88
2022-11-25T13:44:01.959Z,99590.94
2022-11-25T13:46:40.017Z,99585.78
2022-11-25T13:49:23.276Z,99596.53
2022-11-25T13:51:53.089Z,99589.81
2022-11-25T13:54:28.439Z,99608.84
2022-11-25T13:57:28.801Z,99613.38
2022-11-25T14:00:00.400Z,99612.41
2022-11-25T14:02:45.186Z,99606.75
2022-11-25T14:05:31.487Z,99605.38
2022-11-25T14:08:12.157Z,99625.53
2022-11-25T14:10:46.965Z,99613.03
2022-11-25T14:13:58.955Z,99621.09
2022-11-25T14:16:47.273Z,99626.81
2022-11-25T14:19:51.151Z,99628.69
2022-11-25T14:22:48.974Z,99633.09
2022-11-25T14:25:23.417Z,99636.16
2022-11-25T14:28:03.867Z,99644.56
2022-11-25T14:30:33.852Z,99649.84
2022-11-25T14:33:05.092Z,99649.06
2022-11-25T14:35:43.648Z,99645.78
2022-11-25T14:38:18.844Z,99648.44
2022-11-25T14:40:54.766Z,99651.72
2022-11-25T14:43:26.990Z,99659.75
2022-11-25T14:46:12.082Z,99660.69
2022-11-25T14:48:40.653Z,99654.31
2022-11-25T14:51:10.317Z,99657.38
2022-11-25T14:53:47.528Z,99654.84
2022-11-25T14:56:18.550Z,99658.53
2022-11-25T14:58:51.263Z,99656.06
2022-11-25T15:01:20.884Z,99657.22
2022-11-25T15:03:49.463Z,99655.44
2022-11-25T15:06:20.012Z,99654.09
2022-11-25T15:08:57.180Z,99657.88
2022-11-25T15:11:29.844Z,99661.63
2022-11-25T15:14:03.327Z,99654.97
2022-11-25T15:16:36.152Z,99670.66
2022-11-25T15:19:06.900Z,99660.06
2022-11-25T15:21:53.781Z,99668.56
2022-11-25T15:24:27.664Z,99671.97
2022-11-25T15:26:58.139Z,99666.41
2022-11-25T15:29:30.187Z,99666.00
2022-11-25T15:32:00.286Z,99676.72
2022-11-25T15:34:31.024Z,99680.13
2022-11-25T15:37:03.159Z,99675.75
2022-11-25T15:39:31.282Z,99665.25
2022-11-25T15:42:07.771Z,99673.59
2022-11-25T15:44:40.256Z,99670.34
2022-11-25T15:47:20.095Z,99673.41
2022-11-25T15:49:54.922Z,99675.44
2022-11-25T15:52:25.258Z,99683.25
2022-11-25T15:54:57.018Z,99677.19
2022-11-25T15:57:29.622Z,99687.13
2022-11-25T16:00:16.269Z,99685.34
2022-11-25T16:02:53.557Z,99692.53
2022-11-25T16:05:39.844Z,99694.78
2022-11-25T16:08:32.971Z,99696.16
2022-11-25T16:11:12.117Z,99701.56
2022-11-25T16:13:40.963Z,99705.75
2022-11-25T16:16:21.037Z,99709.13
2022-11-25T16:18:59.215Z,99711.84
2022-11-25T16:21:31.504Z,99709.47
2022-11-25T16:24:14.730Z,99714.31
2022-11-25T16:26:52.414Z,99718.34
2022-11-25T16:29:26.439Z,99718.25
2022-11-25T16:31:55.857Z,99732.13
2022-11-25T16:34:26.419Z,99727.50
2022-11-25T16:36:54.808Z,99736.28
2022-11-25T16:39:22.817Z,99731.88
2022-11-25T16:41:57.830Z,99737.19
2022-11-25T16:44:28.330Z,99734.69
2022-11-25T16:46:59.215Z,99744.72
2022-11-25T16:49:27.558Z,99744.16
2022-11-25T16:51:55.602Z,99743.78
2022-11-25T16:54:24.587Z,99744.44
2022-11-25T16:56:54.774Z,99748.59
2022-11-25T16:59:30.756Z,99755.47
2022-11-25T17:02:01.522Z,99753.56
2022-11-25T17:04:29.788Z,99758.97
2022-11-25T17:07:30.936Z,99759.63
2022-11-25T17:09:47.203Z,99762.53
2022-11-25T17:12:19.282Z,99764.44
2022-11-25T17:14:49.408Z,99770.53
2022-11-25T17:17:24.649Z,99763.41
2022-11-25T17:19:53.317Z,99773.31
2022-11-25T17:22:23.172Z,99773.31
2022-11-25T17:24:51.552Z,99771.81
2022-11-25T17:27:25.039Z,99771.56
2022-11-25T17:29:54.457Z,99774.47
2022-11-25T17:32:25.477Z,99790.41
2022-11-25T17:34:53.683Z,99778.03
2022-11-25T17:37:24.038Z,99783.28
2022-11-25T17:39:53.626Z,99785.19
2022-11-25T17:42:28.100Z,99771.56
2022-11-25T17:44:56.207Z,99778.41
2022-11-25T17:47:25.676Z,99783.34
2022-11-25T17:49:54.454Z,99787.97
2022-11-25T17:52:22.574Z,99792.88
2022-11-25T17:54:50.580Z,99794.47
2022-11-25T17:57:22.707Z,99796.53
2022-11-25T17:59:51.257Z,99795.75
2022-11-25T18:02:20.960Z,99793.81
2022-11-25T18:04:51.294Z,99796.97
2022-11-25T18:07:19.649Z,99794.63
2022-11-25T18:09:48.109Z,99805.88
2022-11-25T18:12:20.460Z,99800.00
2022-11-25T18:14:48.599Z,99807.13
2022-11-25T18:17:19.240Z,99810.28
2022-11-25T18:19:52.935Z,99821.44
2022-11-25T18:22:25.151Z,99820.00
2022-11-25T18:24:54.038Z,99818.25
2022-11-25T18:27:24.933Z,99818.56
2022-11-25T18:29:53.881Z,99820.34
2022-11-25T18:32:22.811Z,99828.34
2022-11-25T18:34:51.590Z,99824.69
2022-11-25T18:37:19.674Z,99829.44
2022-11-25T18:39:49.129Z,99824.81
2022-11-25T18:42:26.976Z,99839.13
2022-11-25T18:44:56.362Z,99843.41
2022-11-25T18:47:25.137Z,99831.09
2022-11-25T18:49:56.145Z,99845.50
2022-11-25T18:52:25.091Z,99847.28
2022-11-25T18:54:54.648Z,99845.38
2022-11-25T18:57:22.864Z,99831.25
2022-11-25T19:00:17.001Z,99840.16
2022-11-25T19:02:39.384Z,99836.19
2022-11-25T19:05:17.048Z,99839.84
2022-11-25T19:07:46.212Z,99848.13
2022-11-25T19:10:17.852Z,99847.50
2022-11-25T19:12:49.550Z,99860.19
2022-11-25T19:15:20.714Z,99856.56
2022-11-25T19:17:52.106Z,99867.41
2022-11-25T19:20:22.328Z,99866.91
2022-11-25T19:22:50.838Z,99873.56
2022-11-25T19:25:20.395Z,99861.81
2022-11-25T19:27:52.280Z,99864.38
2022-11-25T19:30:26.649Z,99871.06
2022-11-25T19:33:01.090Z,99869.16
2022-11-25T19:35:34.486Z,99880.78
2022-11-25T19:38:03.060Z,99878.88
2022-11-25T19:40:39.114Z,99878.06
2022-11-25T19:43:08.803Z,99888.38
2022-11-25T19:45:37.836Z,99887.16
2022-11-25T19:48:08.740Z,99884.47
2022-11-25T19:50:40.470Z,99884.47
2022-11-25T19:53:16.925Z,99879.66
2022-11-25T19:55:46.887Z,99882.38
2022-11-25T19:58:16.253Z,99878.09
2022-11-25T20:00:47.353Z,99885.06
2022-11-25T20:03:22.186Z,99898.25
2022-11-25T20:05:51.896Z,99889.38
2022-11-25T20:08:22.112Z,99903.00
2022-11-25T20:10:52.331Z,99902.84
2022-11-25T20:13:20.845Z,99907.63
2022-11-25T20:15:49.057Z,99909.38
2022-11-25T20:18:19.987Z,99907.78
2022-11-25T20:20:49.827Z,99916.53
2022-11-25T20:23:25.618Z,99919.03
2022-11-25T20:25:55.239Z,99916.81
2022-11-25T20:28:26.379Z,99923.34
2022-11-25T20:30:55.561Z,99920.47
2022-11-25T20:33:24.978Z,99917.63
2022-11-25T20:35:56.570Z,99922.22
2022-11-25T20:38:28.079Z,99920.94
2022-11-25T20:41:00.254Z,99914.13
2022-11-25T20:43:38.807Z,99918.25
2022-11-25T20:46:31.743Z,99910.97
2022-11-25T20:49:03.431Z,99917.31
2022-11-25T20:51:31.714Z,99922.72
2022-11-25T20:54:02.152Z,99918.75
2022-11-25T20:56:31.682Z,99921.59
2022-11-25T20:58:59.736Z,99917.16
2022-11-25T21:01:27.884Z,99920.97
2022-11-25T21:03:55.968Z,99922.09
2022-11-25T21:06:28.770Z,99919.06
2022-11-25T21:08:59.414Z,99917.78
2022-11-25T21:11:28.078Z,99921.13
2022-11-25T21:13:57.660Z,99922.09
2022-11-25T21:16:27.579Z,99920.63
2022-11-25T21:18:55.737Z,99925.56
2022-11-25T21:21:31.747Z,99931.44
2022-11-25T21:24:09.972Z,99928.91
2022-11-25T21:27:05.529Z,99931.25
2022-11-25T21:29:37.409Z,99937.00
2022-11-25T21:32:12.344Z,99929.69
2022-11-25T21:34:40.688Z,99936.84
2022-11-25T21:37:12.131Z,99938.91
2022-11-25T21:39:40.288Z,99946.34
2022-11-25T21:42:15.484Z,99952.38
2022-11-25T21:44:47.104Z,99941.91
2022-11-25T21:47:16.315Z,99945.38
2022-11-25T21:49:44.872Z,99946.50
2022-11-25T21:52:13.106Z,99945.72
2022-11-25T21:54:41.920Z,99947.94
2022-11-25T21:57:15.989Z,99954.44
2022-11-25T21:59:46.626Z,99954.44
2022-11-25T22:02:18.844Z,99955.22
2022-11-25T22:04:47.035Z,99962.97
2022-11-25T22:07:15.760Z,99960.63
2022-11-25T22:09:43.967Z,99956.66
2022-11-25T22:12:26.235Z,99960.91
2022-11-25T22:14:56.293Z,99962.53
2022-11-25T22:17:24.535Z,99967.91
2022-11-25T22:19:53.291Z,99966.81
2022-11-25T22:22:21.464Z,99973.94
2022-11-25T22:24:49.674Z,99976.31
2022-11-25T22:27:23.574Z,99975.03
2022-11-25T22:29:53.038Z,99975.38
2022-11-25T22:32:22.561Z,99977.44
2022-11-25T22:34:50.566Z,99983.28
2022-11-25T22:37:21.031Z,99974.88
2022-11-25T22:39:49.484Z,99975.50
2022-11-25T22:42:25.570Z,99979.78
2022-11-25T22:44:55.668Z,99972.00
2022-11-25T22:47:29.775Z,99974.88
2022-11-25T22:49:57.983Z,99984.53
2022-11-25T22:52:29.636Z,99979.78
2022-11-25T22:55:00.868Z,99980.53
2022-11-25T22:57:29.094Z,99977.50
2022-11-25T22:59:57.144Z,99984.66
2022-11-25T23:02:33.550Z,99978.00
2022-11-25T23:05:01.876Z,99981.81
2022-11-25T23:07:30.011Z,99981.44
2022-11-25T23:09:58.138Z,99983.06
2022-11-25T23:12:26.143Z,99994.63
2022-11-25T23:14:54.213Z,100002.22
2022-11-25T23:17:24.610Z,100004.41
2022-11-25T23:19:54.821Z,99998.09
2022-11-25T23:22:23.585Z,99998.72
2022-11-25T23:24:51.823Z,100001.41
2022-11-25T23:27:19.917Z,100001.69
2022-11-25T23:29:47.993Z,100003.28
2022-11-25T23:32:19.734Z,100008.06
2022-11-25T23:34:51.016Z,100005.84
2022-11-25T23:37:20.652Z,100007.25
2022-11-25T23:39:52.554Z,99999.97
2022-11-25T23:42:21.516Z,100004.25
2022-11-25T23:44:50.163Z,100001.06
2022-11-25T23:47:21.174Z,100014.88
2022-11-25T23:49:52.218Z,100018.19
2022-11-25T23:52:24.661Z,100019.28
2022-11-25T23:54:54.292Z,100029.88
2022-11-25T23:57:24.248Z,100035.25
2022-11-25T23:59:53.238Z,100027.31
